createdAt,value
2022-08-10T00:00:55.643Z,22.53
2022-08-10T00:03:25.712Z,22.58
2022-08-10T00:06:04.778Z,22.67
2022-08-10T00:08:35.278Z,22.76
2022-08-10T00:11:05.471Z,22.84
2022-08-10T00:13:46.188Z,22.96
2022-08-10T00:16:16.403Z,23.04
2022-08-10T00:18:46.654Z,23.12
2022-08-10T00:21:16.841Z,23.18
2022-08-10T00:23:46.876Z,23.23
2022-08-10T00:26:16.221Z,23.31
2022-08-10T00:28:48.562Z,23.34
2022-08-10T00:31:18.728Z,23.38
2022-08-10T00:33:48.981Z,23.46
2022-08-10T00:36:22.371Z,23.54
2022-08-10T00:38:52.709Z,23.61
2022-08-10T00:41:23.000Z,23.72
2022-08-10T00:43:53.882Z,23.78
2022-08-10T00:46:23.823Z,23.84
2022-08-10T00:49:00.326Z,23.91
2022-08-10T00:51:32.461Z,23.99
2022-08-10T00:54:24.962Z,24.04
2022-08-10T00:57:17.848Z,24.10
2022-08-10T00:59:58.837Z,24.14
2022-08-10T01:02:33.279Z,24.23
2022-08-10T01:05:08.136Z,24.30
2022-08-10T01:08:12.072Z,24.38
2022-08-10T01:11:01.082Z,24.48
2022-08-10T01:14:12.587Z,24.54
2022-08-10T01:16:56.108Z,24.56
2022-08-10T01:19:38.779Z,24.61
2022-08-10T01:22:33.970Z,24.68
2022-08-10T01:26:11.415Z,24.69
2022-08-10T01:28:43.300Z,24.73
2022-08-10T01:31:18.356Z,24.72
2022-08-10T01:34:14.048Z,24.76
2022-08-10T01:36:52.028Z,24.83
2022-08-10T01:39:30.712Z,24.90
2022-08-10T01:42:04.725Z,24.94
2022-08-10T01:44:50.100Z,24.99
2022-08-10T01:47:41.806Z,25.00
2022-08-10T01:50:56.202Z,25.05
2022-08-10T01:53:45.841Z,25.09
2022-08-10T01:56:19.392Z,25.13
2022-08-10T02:02:10.427Z,25.28
2022-08-10T02:04:46.379Z,25.34
2022-08-10T02:07:25.145Z,25.36
2022-08-10T02:09:59.364Z,25.40
2022-08-10T02:12:48.252Z,25.45
2022-08-10T02:15:23.095Z,25.50
2022-08-10T02:18:01.882Z,25.55
2022-08-10T02:20:42.021Z,25.61
2022-08-10T02:23:21.851Z,25.64
2022-08-10T02:25:58.342Z,25.65
2022-08-10T02:29:17.474Z,25.67
2022-08-10T02:32:03.678Z,25.69
2022-08-10T02:37:50.915Z,25.82
2022-08-10T02:45:15.496Z,25.84
2022-08-10T02:45:19.059Z,25.87
2022-08-10T02:46:27.149Z,25.92
2022-08-10T02:49:06.393Z,25.99
2022-08-10T02:52:07.781Z,26.04
2022-08-10T02:54:46.144Z,26.12
2022-08-10T02:57:36.703Z,26.18
2022-08-10T03:00:32.152Z,26.21
2022-08-10T03:03:13.419Z,26.22
2022-08-10T03:05:45.598Z,26.20
2022-08-10T03:08:20.719Z,26.20
2022-08-10T03:10:53.062Z,26.22
2022-08-10T03:13:26.085Z,26.25
2022-08-10T03:15:59.520Z,26.32
2022-08-10T03:18:31.551Z,26.35
2022-08-10T03:21:01.970Z,26.39
2022-08-10T03:23:32.679Z,26.41
2022-08-10T03:26:04.141Z,26.41
2022-08-10T03:28:35.741Z,26.44
2022-08-10T03:31:07.201Z,26.50
2022-08-10T03:33:42.246Z,26.54
2022-08-10T03:36:40.728Z,26.58
2022-08-10T03:39:09.095Z,26.62
2022-08-10T03:41:47.774Z,26.66
2022-08-10T03:44:36.091Z,26.61
2022-08-10T03:47:15.068Z,26.68
2022-08-10T03:49:51.010Z,26.75
2022-08-10T03:52:28.933Z,26.77
2022-08-10T03:55:00.603Z,26.77
2022-08-10T03:57:34.947Z,26.83
2022-08-10T04:00:23.127Z,26.85
2022-08-10T04:02:55.104Z,26.91
2022-08-10T04:05:38.844Z,26.94
2022-08-10T04:08:10.415Z,26.97
2022-08-10T04:10:41.480Z,27.00
2022-08-10T04:13:13.639Z,27.06
2022-08-10T04:15:44.467Z,27.08
2022-08-10T04:18:15.747Z,27.10
2022-08-10T04:21:18.337Z,27.16
2022-08-10T04:23:53.169Z,27.16
2022-08-10T04:26:29.661Z,27.18
2022-08-10T04:29:00.415Z,27.22
2022-08-10T04:31:34.805Z,27.23
2022-08-10T04:34:08.814Z,27.25
2022-08-10T04:36:40.795Z,27.30
2022-08-10T04:39:15.657Z,27.32
2022-08-10T04:41:47.677Z,27.32
2022-08-10T04:44:18.653Z,27.32
2022-08-10T04:46:56.102Z,27.39
2022-08-10T04:49:56.278Z,27.43
2022-08-10T04:52:20.095Z,27.41
2022-08-10T04:54:52.499Z,27.42
2022-08-10T04:57:23.437Z,27.44
2022-08-10T04:59:53.773Z,27.49
2022-08-10T05:02:31.328Z,27.51
2022-08-10T05:05:04.498Z,27.55
2022-08-10T05:07:53.806Z,27.62
2022-08-10T05:10:26.426Z,27.64
2022-08-10T05:12:57.857Z,27.72
2022-08-10T05:15:32.940Z,27.79
2022-08-10T05:18:11.201Z,27.81
2022-08-10T05:20:50.025Z,27.86
2022-08-10T05:23:28.015Z,27.94
2022-08-10T05:26:02.250Z,27.95
2022-08-10T05:28:35.163Z,27.97
2022-08-10T05:31:12.218Z,28.00
2022-08-10T05:33:53.254Z,28.00
2022-08-10T05:36:24.374Z,28.05
2022-08-10T05:38:55.498Z,28.08
2022-08-10T05:41:52.980Z,28.06
2022-08-10T05:44:26.208Z,28.11
2022-08-10T05:46:56.641Z,28.11
2022-08-10T05:49:29.050Z,28.13
2022-08-10T05:52:03.000Z,28.16
2022-08-10T05:54:33.844Z,28.19
2022-08-10T05:57:04.672Z,28.21
2022-08-10T06:00:10.714Z,28.24
2022-08-10T06:03:04.398Z,28.28
2022-08-10T06:05:38.950Z,28.29
2022-08-10T06:08:26.859Z,28.36
2022-08-10T06:12:23.509Z,28.36
2022-08-10T06:14:12.970Z,28.42
2022-08-10T06:16:46.460Z,28.41
2022-08-10T06:19:17.131Z,28.45
2022-08-10T06:22:01.432Z,28.47
2022-08-10T06:24:35.395Z,28.52
2022-08-10T06:27:07.363Z,28.54
2022-08-10T06:29:42.510Z,28.60
2022-08-10T06:32:15.148Z,28.57
2022-08-10T06:34:52.922Z,28.61
2022-08-10T06:37:28.639Z,28.61
2022-08-10T06:39:59.579Z,28.64
2022-08-10T06:42:44.308Z,28.68
2022-08-10T06:45:33.183Z,28.72
2022-08-10T06:48:40.429Z,28.73
2022-08-10T06:51:19.461Z,28.80
2022-08-10T06:53:59.598Z,28.86
2022-08-10T06:57:08.346Z,28.93
2022-08-10T06:59:57.304Z,28.97
2022-08-10T07:02:41.219Z,28.95
2022-08-10T07:06:13.604Z,29.00
2022-08-10T07:08:52.137Z,29.02
2022-08-10T07:11:24.150Z,29.02
2022-08-10T07:14:15.569Z,29.02
2022-08-10T07:16:50.636Z,29.06
2022-08-10T07:19:25.788Z,29.09
2022-08-10T07:22:00.108Z,29.15
2022-08-10T07:24:34.122Z,29.22
2022-08-10T07:27:09.505Z,29.27
2022-08-10T07:29:54.302Z,29.29
2022-08-10T07:32:25.624Z,29.32
2022-08-10T07:34:58.451Z,29.37
2022-08-10T07:37:34.874Z,29.38
2022-08-10T07:40:07.108Z,29.44
2022-08-10T07:42:45.640Z,29.44
2022-08-10T07:45:16.956Z,29.45
2022-08-10T07:48:13.626Z,29.51
2022-08-10T07:50:45.103Z,29.54
2022-08-10T07:53:23.802Z,29.60
2022-08-10T07:56:05.362Z,29.63
2022-08-10T07:58:56.068Z,29.69
2022-08-10T08:01:36.458Z,29.71
2022-08-10T08:04:12.118Z,29.74
2022-08-10T08:06:46.259Z,29.74
2022-08-10T08:09:17.851Z,29.76
2022-08-10T08:11:50.855Z,29.78
2022-08-10T08:14:23.493Z,29.82
2022-08-10T08:16:57.998Z,29.83
2022-08-10T08:19:37.062Z,29.86
2022-08-10T08:24:09.884Z,29.89
2022-08-10T08:24:59.947Z,29.93
2022-08-10T08:27:31.835Z,29.97
2022-08-10T08:30:07.174Z,29.97
2022-08-10T08:32:40.770Z,30.00
2022-08-10T08:35:15.113Z,30.04
2022-08-10T08:38:31.780Z,30.04
2022-08-10T08:40:43.017Z,30.13
2022-08-10T08:43:39.765Z,30.17
2022-08-10T08:46:59.232Z,30.24
2022-08-10T08:50:09.118Z,30.35
2022-08-10T08:53:01.230Z,30.38
2022-08-10T08:56:04.321Z,30.39
2022-08-10T08:58:55.085Z,30.40
2022-08-10T09:01:43.691Z,30.43
2022-08-10T09:04:34.903Z,30.45
2022-08-10T09:07:59.672Z,30.48
2022-08-10T09:10:37.691Z,30.49
2022-08-10T09:13:28.026Z,30.50
2022-08-10T09:16:45.249Z,30.47
2022-08-10T09:19:36.841Z,30.40
2022-08-10T09:22:18.772Z,30.34
2022-08-10T09:25:15.464Z,30.28
2022-08-10T09:27:51.858Z,30.20
2022-08-10T09:31:10.909Z,30.16
2022-08-10T09:36:28.153Z,30.15
2022-08-10T09:37:39.915Z,30.07
2022-08-10T09:41:00.977Z,29.96
2022-08-10T09:43:37.283Z,29.88
2022-08-10T09:46:36.273Z,29.80
2022-08-10T09:49:36.267Z,29.71
2022-08-10T09:52:35.922Z,29.65
2022-08-10T09:56:18.281Z,29.59
2022-08-10T09:59:59.602Z,29.53
2022-08-10T10:02:16.146Z,29.45
2022-08-10T10:05:12.708Z,29.40
2022-08-10T10:07:53.196Z,29.34
2022-08-10T10:10:35.807Z,29.28
2022-08-10T10:13:41.641Z,29.24
2022-08-10T10:16:46.931Z,29.22
2022-08-10T10:19:40.520Z,29.16
2022-08-10T10:22:48.915Z,29.14
2022-08-10T10:25:52.545Z,29.13
2022-08-10T10:32:42.440Z,29.09
2022-08-10T10:35:38.083Z,29.05
2022-08-10T10:38:55.142Z,29.04
2022-08-10T10:45:29.679Z,28.96
2022-08-10T10:48:45.886Z,28.92
2022-08-10T10:56:13.268Z,28.81
2022-08-10T10:58:54.839Z,28.74
2022-08-10T11:06:16.561Z,28.60
2022-08-10T11:10:08.635Z,28.52
2022-08-10T11:12:39.982Z,28.45
2022-08-10T11:15:32.721Z,28.36
2022-08-10T11:18:36.215Z,28.28
2022-08-10T11:21:42.342Z,28.20
2022-08-10T11:24:48.885Z,28.11
2022-08-10T11:31:40.661Z,27.92
2022-08-10T11:34:48.127Z,27.83
2022-08-10T11:38:32.668Z,27.76
2022-08-10T11:42:09.452Z,27.71
2022-08-10T11:45:14.094Z,27.65
2022-08-10T11:48:57.055Z,27.58
2022-08-10T11:52:15.394Z,27.47
2022-08-10T11:55:37.556Z,27.34
2022-08-10T11:59:16.540Z,27.27
2022-08-10T12:02:39.584Z,27.18
2022-08-10T12:10:08.871Z,27.07
2022-08-10T12:15:32.958Z,26.92
2022-08-10T12:18:23.624Z,26.89
2022-08-10T12:21:22.213Z,26.85
2022-08-10T12:24:17.115Z,26.80
2022-08-10T12:27:57.062Z,26.74
2022-08-10T12:30:34.689Z,26.68
2022-08-10T12:33:16.557Z,26.60
2022-08-10T12:36:18.421Z,26.56
2022-08-10T12:39:17.355Z,26.51
2022-08-10T12:42:12.069Z,26.45
2022-08-10T12:45:14.748Z,26.43
2022-08-10T12:47:55.701Z,26.34
2022-08-10T12:50:32.991Z,26.33
2022-08-10T12:53:12.414Z,26.30
2022-08-10T12:55:46.500Z,26.24
2022-08-10T12:58:57.990Z,26.18
2022-08-10T13:01:16.733Z,26.07
2022-08-10T13:04:21.570Z,26.02
2022-08-10T13:06:51.042Z,26.00
2022-08-10T13:09:32.581Z,26.00
2022-08-10T13:12:44.501Z,26.00
2022-08-10T13:15:50.113Z,26.00
2022-08-10T13:18:45.961Z,26.02
2022-08-10T13:21:21.476Z,25.98
2022-08-10T13:24:04.230Z,25.97
2022-08-10T13:26:49.468Z,25.96
2022-08-10T13:29:44.138Z,25.96
2022-08-10T13:32:24.113Z,25.95
2022-08-10T13:34:59.603Z,25.92
2022-08-10T13:37:32.219Z,25.88
2022-08-10T13:40:04.878Z,25.84
2022-08-10T13:42:41.842Z,25.82
2022-08-10T13:45:25.363Z,25.82
2022-08-10T13:48:10.285Z,25.81
2022-08-10T13:50:43.091Z,25.82
2022-08-10T13:53:19.886Z,25.83
2022-08-10T13:55:57.338Z,25.79
2022-08-10T13:58:41.518Z,25.76
2022-08-10T14:04:43.027Z,25.69
2022-08-10T14:08:00.288Z,25.68
2022-08-10T14:11:11.311Z,25.64
2022-08-10T14:14:40.142Z,25.62
2022-08-10T14:17:44.769Z,25.59
2022-08-10T14:20:29.221Z,25.51
2022-08-10T14:23:25.070Z,25.55
2022-08-10T14:30:01.701Z,25.53
2022-08-10T14:33:10.952Z,25.52
2022-08-10T14:39:20.241Z,25.43
2022-08-10T14:42:27.766Z,25.43
2022-08-10T14:45:47.356Z,25.38
2022-08-10T14:49:26.667Z,25.36
2022-08-10T14:52:52.731Z,25.30
2022-08-10T14:55:58.744Z,25.27
2022-08-10T15:05:52.950Z,25.22
2022-08-10T15:12:18.614Z,25.12
2022-08-10T15:15:30.452Z,25.07
2022-08-10T15:18:27.709Z,24.99
2022-08-10T15:24:13.897Z,24.89
2022-08-10T15:26:58.003Z,24.91
2022-08-10T15:34:02.283Z,24.91
2022-08-10T15:37:40.134Z,24.90
2022-08-10T15:40:50.935Z,24.88
2022-08-10T15:43:53.029Z,24.85
2022-08-10T15:47:15.181Z,24.86
2022-08-10T15:50:03.697Z,24.85
2022-08-10T15:57:09.843Z,24.82
2022-08-10T16:00:26.885Z,24.81
2022-08-10T16:03:54.567Z,24.78
2022-08-10T16:07:09.868Z,24.73
2022-08-10T16:10:24.900Z,24.68
2022-08-10T16:13:50.317Z,24.59
2022-08-10T16:16:17.891Z,24.53
2022-08-10T16:18:54.757Z,24.50
2022-08-10T16:21:30.415Z,24.48
2022-08-10T16:24:15.289Z,24.47
2022-08-10T16:26:52.673Z,24.48
2022-08-10T16:29:26.474Z,24.49
2022-08-10T16:32:05.033Z,24.45
2022-08-10T16:34:39.815Z,24.45
2022-08-10T16:37:11.863Z,24.41
2022-08-10T16:40:01.428Z,24.37
2022-08-10T16:42:45.076Z,24.35
2022-08-10T16:45:24.364Z,24.28
2022-08-10T16:47:57.973Z,24.25
2022-08-10T16:50:32.200Z,24.24
2022-08-10T16:53:07.173Z,24.23
2022-08-10T16:55:48.504Z,24.23
2022-08-10T16:58:36.471Z,24.23
2022-08-10T17:01:10.533Z,24.23
2022-08-10T17:04:08.302Z,24.22
2022-08-10T17:06:53.873Z,24.21
2022-08-10T17:09:30.682Z,24.20
2022-08-10T17:12:06.046Z,24.19
2022-08-10T17:14:41.622Z,24.21
2022-08-10T17:17:28.130Z,24.19
2022-08-10T17:20:31.375Z,24.18
2022-08-10T17:23:00.911Z,24.21
2022-08-10T17:25:45.848Z,24.19
2022-08-10T17:28:33.260Z,24.20
2022-08-10T17:31:53.211Z,24.17
2022-08-10T17:34:04.131Z,24.15
2022-08-10T17:36:38.052Z,24.13
2022-08-10T17:39:13.913Z,24.13
2022-08-10T17:41:49.800Z,24.10
2022-08-10T17:44:21.403Z,24.06
2022-08-10T17:46:52.521Z,24.03
2022-08-10T17:49:22.971Z,24.00
2022-08-10T17:51:55.941Z,23.98
2022-08-10T17:54:40.440Z,23.97
2022-08-10T17:57:17.227Z,23.96
2022-08-10T17:59:51.474Z,23.92
2022-08-10T18:02:30.606Z,23.89
2022-08-10T18:05:03.948Z,23.83
2022-08-10T18:07:40.456Z,23.79
2022-08-10T18:10:16.249Z,23.76
2022-08-10T18:12:54.460Z,23.73
2022-08-10T18:15:28.780Z,23.72
2022-08-10T18:18:02.646Z,23.67
2022-08-10T18:20:39.414Z,23.63
2022-08-10T18:23:11.178Z,23.61
2022-08-10T18:25:45.625Z,23.60
2022-08-10T18:28:23.117Z,23.58
2022-08-10T18:30:55.636Z,23.58
2022-08-10T18:33:32.885Z,23.58
2022-08-10T18:36:06.491Z,23.58
2022-08-10T18:38:39.557Z,23.59
2022-08-10T18:41:17.793Z,23.59
2022-08-10T18:44:05.668Z,23.58
2022-08-10T18:46:56.647Z,23.55
2022-08-10T18:49:35.439Z,23.53
2022-08-10T18:52:16.784Z,23.51
2022-08-10T18:54:50.780Z,23.51
2022-08-10T18:57:57.867Z,23.50
2022-08-10T19:00:48.710Z,23.49
2022-08-10T19:03:36.821Z,23.48
2022-08-10T19:07:00.857Z,23.45
2022-08-10T19:09:51.908Z,23.40
2022-08-10T19:12:46.183Z,23.37
2022-08-10T19:15:28.090Z,23.32
2022-08-10T19:18:13.269Z,23.24
2022-08-10T19:21:25.154Z,23.19
2022-08-10T19:24:01.174Z,23.16
2022-08-10T19:26:46.042Z,23.14
2022-08-10T19:30:09.036Z,23.13
2022-08-10T19:32:50.282Z,23.13
2022-08-10T19:36:04.516Z,23.12
2022-08-10T19:39:06.296Z,23.08
2022-08-10T19:41:54.499Z,23.05
2022-08-10T19:44:40.030Z,23.04
2022-08-10T19:47:40.466Z,23.05
2022-08-10T19:50:36.109Z,23.03
2022-08-10T19:53:06.764Z,23.03
2022-08-10T19:56:30.591Z,23.02
2022-08-10T20:00:16.478Z,23.02
2022-08-10T20:03:08.131Z,23.03
2022-08-10T20:06:18.858Z,23.05
2022-08-10T20:09:16.757Z,23.04
2022-08-10T20:12:00.020Z,23.04
2022-08-10T20:14:59.377Z,23.04
2022-08-10T20:17:49.317Z,23.02
2022-08-10T20:20:50.146Z,23.01
2022-08-10T20:23:30.380Z,23.00
2022-08-10T20:26:29.239Z,22.98
2022-08-10T20:29:16.494Z,22.98
2022-08-10T20:32:22.310Z,22.96
2022-08-10T20:35:07.442Z,22.94
2022-08-10T20:38:03.805Z,22.94
2022-08-10T20:40:40.834Z,22.93
2022-08-10T20:43:32.034Z,22.90
2022-08-10T20:46:23.008Z,22.89
2022-08-10T20:49:06.189Z,22.90
2022-08-10T20:52:04.016Z,22.85
2022-08-10T20:55:00.848Z,22.86
2022-08-10T20:57:57.601Z,22.84
2022-08-10T21:00:51.195Z,22.79
2022-08-10T21:03:43.982Z,22.77
2022-08-10T21:06:55.077Z,22.75
2022-08-10T21:09:44.083Z,22.73
2022-08-10T21:12:34.091Z,22.68
2022-08-10T21:15:30.212Z,22.63
2022-08-10T21:18:20.745Z,22.61
2022-08-10T21:21:00.017Z,22.58
2022-08-10T21:23:31.274Z,22.58
2022-08-10T21:26:29.905Z,22.56
2022-08-10T21:29:37.992Z,22.54
2022-08-10T21:32:22.225Z,22.51
2022-08-10T21:38:36.819Z,22.49
2022-08-10T21:41:58.011Z,22.48
2022-08-10T21:45:11.076Z,22.48
2022-08-10T21:48:07.212Z,22.46
2022-08-10T21:51:24.207Z,22.45
2022-08-10T21:54:39.812Z,22.47
2022-08-10T21:57:43.017Z,22.50
2022-08-10T22:00:50.064Z,22.54
2022-08-10T22:03:40.014Z,22.57
2022-08-10T22:06:32.202Z,22.59
2022-08-10T22:09:27.737Z,22.62
2022-08-10T22:12:31.686Z,22.64
2022-08-10T22:16:03.835Z,22.67
2022-08-10T22:18:58.871Z,22.68
2022-08-10T22:22:27.090Z,22.71
2022-08-10T22:25:47.486Z,22.65
2022-08-10T22:28:40.034Z,22.65
2022-08-10T22:31:24.933Z,22.50
2022-08-10T22:31:48.213Z,22.65
2022-08-10T22:35:00.539Z,22.65
2022-08-10T22:37:56.869Z,22.65
2022-08-10T22:40:45.730Z,22.64
2022-08-10T22:43:46.075Z,22.66
2022-08-10T22:46:47.255Z,22.67
2022-08-10T22:49:26.762Z,22.73
2022-08-10T22:52:14.449Z,22.79
2022-08-10T22:55:29.775Z,22.86
2022-08-10T22:58:18.019Z,22.89
2022-08-10T23:01:03.752Z,22.96
2022-08-10T23:03:51.497Z,23.00
2022-08-10T23:06:28.330Z,23.04
2022-08-10T23:09:04.679Z,23.06
2022-08-10T23:11:46.787Z,23.13
2022-08-10T23:14:19.557Z,23.17
2022-08-10T23:17:14.557Z,23.19
2022-08-10T23:19:47.816Z,23.23
2022-08-10T23:22:21.049Z,23.25
2022-08-10T23:25:30.087Z,23.30
2022-08-10T23:28:12.312Z,23.33
2022-08-10T23:30:47.944Z,23.35
2022-08-10T23:33:37.579Z,23.38
2022-08-10T23:36:33.800Z,23.43
2022-08-10T23:39:25.254Z,23.48
2022-08-10T23:42:06.352Z,23.52
2022-08-10T23:44:49.463Z,23.56
2022-08-10T23:47:25.581Z,23.59
2022-08-10T23:49:59.592Z,23.61
2022-08-10T23:52:36.304Z,23.65
2022-08-10T23:55:14.382Z,23.68
2022-08-10T23:57:48.782Z,23.68
